Time;durP1;ratioP1;P1;durP2;ratioP2;P2;SDS_P1;SDS_P2;PMS_P1;PMS_P2;Temp;Humidity;BMP_temperature;BMP_pressure;BME280_temperature;BME280_humidity;BME280_pressure;Samples;Min_cycle;Max_cycle;Signal;HPM_P1;HPM_P2
2022/09/08 00:01:34;;;;;;;10.15;7.78;;;14.60;79.10;;;;;;1898637;75;21529;-66
2022/09/08 00:04:05;;;;;;;9.78;7.35;;;14.60;79.10;;;;;;1898537;75;21017;-66
2022/09/08 00:06:34;;;;;;;10.58;7.97;;;14.50;79.30;;;;;;1898597;75;21059;-66
2022/09/08 00:09:04;;;;;;;12.20;8.70;;;14.50;79.40;;;;;;1898608;75;20988;-65
2022/09/08 00:11:34;;;;;;;10.53;8.28;;;14.50;79.30;;;;;;1898550;75;21032;-66
2022/09/08 00:14:06;;;;;;;9.40;8.18;;;14.50;78.90;;;;;;1898613;75;20957;-65
2022/09/08 00:16:35;;;;;;;10.38;7.53;;;14.50;79.10;;;;;;1898487;75;21020;-65
2022/09/08 00:19:04;;;;;;;9.73;7.58;;;14.50;79.40;;;;;;1898517;75;21559;-65
2022/09/08 00:21:33;;;;;;;11.28;7.35;;;14.50;79.40;;;;;;1898578;75;21046;-65
2022/09/08 00:24:02;;;;;;;9.88;8.20;;;14.60;79.40;;;;;;1898533;75;20977;-65
2022/09/08 00:26:31;;;;;;;10.95;8.20;;;14.60;78.90;;;;;;1898603;75;21050;-64
2022/09/08 00:29:00;;;;;;;10.08;8.58;;;14.50;78.80;;;;;;1898701;75;20997;-65
2022/09/08 00:31:29;;;;;;;13.20;11.48;;;14.50;79.10;;;;;;1898654;75;20993;-65
2022/09/08 00:33:58;;;;;;;20.45;18.45;;;14.50;79.60;;;;;;1898566;75;20959;-65
2022/09/08 00:36:28;;;;;;;17.55;15.72;;;14.50;79.80;;;;;;1898517;75;21403;-65
2022/09/08 00:39:00;;;;;;;14.93;13.43;;;14.50;79.80;;;;;;1898493;75;20946;-66
2022/09/08 00:41:29;;;;;;;17.12;15.03;;;14.60;79.80;;;;;;1898678;75;20983;-65
2022/09/08 00:43:59;;;;;;;17.17;14.87;;;14.60;79.80;;;;;;1898604;75;21447;-65
2022/09/08 00:46:33;;;;;;;17.12;13.53;;;14.60;79.70;;;;;;1898520;75;20981;-65
2022/09/08 00:49:16;;;;;;;17.57;13.85;;;14.60;79.80;;;;;;1898431;75;21025;-65
2022/09/08 00:51:47;;;;;;;16.73;13.05;;;14.60;79.80;;;;;;1898665;75;21138;-65
2022/09/08 00:54:18;;;;;;;14.07;12.60;;;14.50;79.70;;;;;;1898733;75;21408;-65
2022/09/08 00:56:49;;;;;;;13.72;11.45;;;14.60;80.00;;;;;;1898601;75;20980;-65
2022/09/08 00:59:20;;;;;;;15.68;11.00;;;14.60;80.30;;;;;;1898543;75;20985;-66
2022/09/08 01:01:50;;;;;;;17.23;11.05;;;14.60;80.00;;;;;;1898604;75;21027;-66
2022/09/08 01:04:19;;;;;;;13.13;9.48;;;14.50;79.50;;;;;;1898481;75;21396;-65
2022/09/08 01:12:46;;;;;;;14.43;9.05;;;14.40;80.50;;;;;;1898681;75;21047;-66
2022/09/08 01:15:18;;;;;;;11.15;9.15;;;14.40;80.40;;;;;;1898544;75;21047;-66
2022/09/08 01:17:49;;;;;;;9.98;8.30;;;14.40;80.50;;;;;;1898567;75;21459;-66
2022/09/08 01:20:23;;;;;;;8.85;7.22;;;14.50;80.60;;;;;;1898549;75;21009;-66
2022/09/08 01:23:23;;;;;;;10.38;8.33;;;14.50;80.60;;;;;;1898093;74;20989;-66
2022/09/08 01:26:11;;;;;;;10.98;7.60;;;14.50;80.60;;;;;;1898534;75;21440;-65
2022/09/08 01:28:49;;;;;;;11.57;7.05;;;14.50;80.40;;;;;;1898554;75;20984;-65
2022/09/08 01:31:20;;;;;;;8.83;7.33;;;14.50;80.60;;;;;;1897381;75;20993;-65
2022/09/08 01:33:49;;;;;;;10.90;7.35;;;14.50;80.80;;;;;;1898626;75;21091;-65
2022/09/08 01:36:19;;;;;;;8.68;7.08;;;14.50;80.90;;;;;;1898524;75;21039;-65
2022/09/08 01:38:48;;;;;;;8.58;7.20;;;14.50;80.80;;;;;;1898553;75;20994;-64
2022/09/08 01:41:17;;;;;;;11.78;6.67;;;14.60;80.70;;;;;;1898504;75;21044;-65
2022/09/08 01:43:46;;;;;;;8.70;7.42;;;14.50;80.00;;;;;;1898583;75;21043;-65
2022/09/08 01:46:15;;;;;;;8.50;6.67;;;14.50;80.30;;;;;;1898567;75;21009;-65
2022/09/08 01:48:43;;;;;;;9.25;6.45;;;14.50;80.60;;;;;;1898556;75;21044;-65
2022/09/08 01:51:13;;;;;;;10.00;8.13;;;14.50;80.70;;;;;;1898542;75;21090;-65
2022/09/08 01:53:41;;;;;;;8.60;6.62;;;14.50;80.60;;;;;;1898496;75;20961;-65
2022/09/08 01:56:10;;;;;;;11.03;6.58;;;14.50;80.40;;;;;;1898544;75;21075;-65
2022/09/08 01:58:39;;;;;;;12.70;7.05;;;14.50;80.50;;;;;;1898556;75;21457;-65
2022/09/08 02:01:10;;;;;;;8.30;6.47;;;14.50;80.70;;;;;;1897918;75;21050;-65
2022/09/08 02:03:38;;;;;;;10.35;6.42;;;14.50;80.90;;;;;;1898529;75;21032;-65
2022/09/08 02:06:09;;;;;;;10.23;6.87;;;14.50;81.00;;;;;;1894775;75;21471;-64
2022/09/08 02:08:38;;;;;;;8.55;6.40;;;14.50;81.00;;;;;;1891989;76;20985;-65
2022/09/08 02:11:07;;;;;;;9.90;7.03;;;14.60;81.30;;;;;;1892121;76;20997;-64
2022/09/08 02:13:37;;;;;;;7.25;6.45;;;14.60;81.40;;;;;;1891960;76;21419;-64
2022/09/08 02:16:11;;;;;;;9.35;6.62;;;14.60;81.20;;;;;;1891993;76;20977;-65
2022/09/08 02:18:40;;;;;;;8.83;6.53;;;14.60;80.90;;;;;;1892300;76;21447;-64
2022/09/08 02:21:15;;;;;;;7.97;7.17;;;14.60;81.10;;;;;;1892030;76;20965;-64
2022/09/08 02:23:46;;;;;;;10.60;6.45;;;14.60;81.30;;;;;;1891349;76;21079;-65
2022/09/08 02:26:18;;;;;;;13.25;7.17;;;14.60;81.00;;;;;;1892022;76;20977;-65
2022/09/08 02:28:48;;;;;;;7.80;6.95;;;14.60;81.10;;;;;;1890338;76;21518;-65
2022/09/08 02:31:17;;;;;;;7.87;6.33;;;14.60;81.30;;;;;;1891972;76;21054;-65
2022/09/08 02:33:46;;;;;;;7.65;6.50;;;14.50;81.30;;;;;;1891984;76;20981;-64
2022/09/08 02:36:15;;;;;;;11.15;6.50;;;14.50;81.50;;;;;;1892035;76;20985;-64
2022/09/08 02:38:49;;;;;;;12.07;7.10;;;14.60;81.40;;;;;;1891991;76;21061;-65
2022/09/08 02:41:18;;;;;;;10.90;7.15;;;14.60;81.60;;;;;;1892027;76;21048;-65
2022/09/08 02:43:47;;;;;;;10.80;7.42;;;14.60;81.50;;;;;;1891906;76;21000;-64
2022/09/08 02:46:16;;;;;;;9.38;6.67;;;14.60;81.50;;;;;;1892038;76;20969;-64
2022/09/08 02:48:44;;;;;;;8.73;7.53;;;14.50;81.70;;;;;;1891961;76;20969;-65
2022/09/08 02:51:17;;;;;;;7.80;6.62;;;14.60;82.00;;;;;;1891931;76;20973;-65
2022/09/08 02:53:45;;;;;;;7.40;5.87;;;14.50;82.00;;;;;;1891935;76;21031;-64
2022/09/08 02:56:15;;;;;;;6.35;5.70;;;14.60;82.00;;;;;;1891920;76;21464;-65
2022/09/08 02:58:43;;;;;;;9.93;6.33;;;14.60;82.00;;;;;;1891964;76;20961;-65
2022/09/08 03:01:12;;;;;;;7.37;6.35;;;14.50;81.90;;;;;;1891908;76;20997;-65
2022/09/08 03:03:41;;;;;;;9.73;6.80;;;14.60;81.90;;;;;;1891929;76;21455;-65
2022/09/08 03:06:10;;;;;;;10.72;6.80;;;14.50;81.80;;;;;;1895214;75;21083;-65
2022/09/08 03:08:39;;;;;;;7.42;6.62;;;14.60;81.80;;;;;;1901215;75;20972;-64
2022/09/08 03:11:09;;;;;;;9.05;7.25;;;14.50;81.70;;;;;;1901347;75;21118;-65
2022/09/08 03:13:39;;;;;;;9.33;6.87;;;14.50;81.80;;;;;;1901322;75;21461;-66
2022/09/08 03:16:08;;;;;;;9.73;6.47;;;14.50;82.00;;;;;;1901341;75;20961;-65
2022/09/08 03:18:37;;;;;;;6.22;5.28;;;14.50;82.00;;;;;;1901256;75;21501;-65
2022/09/08 03:21:09;;;;;;;9.33;6.78;;;14.50;82.00;;;;;;1901205;75;20965;-64
2022/09/08 03:23:38;;;;;;;10.60;5.70;;;14.50;82.10;;;;;;1901361;75;20933;-64
2022/09/08 03:26:09;;;;;;;9.58;6.72;;;14.50;82.10;;;;;;1901376;75;20969;-64
2022/09/08 03:28:39;;;;;;;17.85;6.85;;;14.50;82.20;;;;;;1901324;75;21119;-64
2022/09/08 03:31:13;;;;;;;11.08;6.30;;;14.50;82.10;;;;;;1901291;75;20961;-65
2022/09/08 03:33:43;;;;;;;6.80;6.03;;;14.50;82.30;;;;;;1901522;75;21047;-65
2022/09/08 03:36:13;;;;;;;22.65;6.62;;;14.50;82.40;;;;;;1901378;75;20973;-64
2022/09/08 03:38:42;;;;;;;8.53;6.22;;;14.50;82.00;;;;;;1901280;75;20945;-65
2022/09/08 03:41:14;;;;;;;12.35;5.85;;;14.50;82.10;;;;;;1901245;75;20972;-64
2022/09/08 03:43:51;;;;;;;9.10;5.37;;;14.50;82.30;;;;;;1901223;75;21020;-64
2022/09/08 03:46:20;;;;;;;8.15;6.20;;;14.50;81.80;;;;;;1901268;75;21416;-64
2022/09/08 03:48:49;;;;;;;8.25;5.60;;;14.40;82.10;;;;;;1901246;75;20981;-65
2022/09/08 03:51:25;;;;;;;9.85;6.25;;;14.40;82.30;;;;;;1901219;75;20981;-65
2022/09/08 03:54:46;;;;;;;10.20;6.90;;;14.50;82.60;;;;;;1901450;75;21407;-65
2022/09/08 03:56:26;;;;;;;7.47;6.10;;;14.50;82.30;;;;;;1895816;75;20949;-65
2022/09/08 03:58:55;;;;;;;9.93;8.45;;;14.50;81.70;;;;;;1901288;75;20992;-65
2022/09/08 04:01:24;;;;;;;11.57;6.00;;;14.50;81.30;;;;;;1901333;75;21059;-65
2022/09/08 04:03:53;;;;;;;9.28;6.90;;;14.50;81.50;;;;;;1901485;75;21387;-65
2022/09/08 04:06:22;;;;;;;7.25;6.35;;;14.50;82.00;;;;;;1901442;75;21059;-65
2022/09/08 04:08:51;;;;;;;7.20;5.83;;;14.60;81.60;;;;;;1901408;75;21035;-65
2022/09/08 04:11:20;;;;;;;11.63;5.90;;;14.60;80.60;;;;;;1901365;75;20985;-65
2022/09/08 04:13:50;;;;;;;8.38;6.08;;;14.70;80.90;;;;;;1901475;75;21423;-65
2022/09/08 04:16:19;;;;;;;9.13;6.20;;;14.70;81.10;;;;;;1901462;75;21039;-66
2022/09/08 04:18:48;;;;;;;10.32;5.83;;;14.80;80.50;;;;;;1901343;75;21379;-65
2022/09/08 04:21:17;;;;;;;10.48;6.20;;;14.90;80.80;;;;;;1901342;75;20981;-65
2022/09/08 04:23:46;;;;;;;23.35;12.25;;;14.90;80.60;;;;;;1901328;75;20969;-65
2022/09/08 04:26:15;;;;;;;19.37;9.28;;;15.00;80.50;;;;;;1901284;75;21042;-65
2022/09/08 04:28:44;;;;;;;8.95;7.30;;;15.10;80.50;;;;;;1901306;75;21043;-65
2022/09/08 04:31:15;;;;;;;14.03;7.10;;;15.10;79.90;;;;;;1901385;75;21027;-66
2022/09/08 04:33:45;;;;;;;14.00;7.97;;;15.20;79.60;;;;;;1901356;75;21009;-65
2022/09/08 04:36:17;;;;;;;24.92;11.95;;;15.20;79.30;;;;;;1901349;75;20976;-65
2022/09/08 04:38:46;;;;;;;26.05;13.95;;;15.20;79.60;;;;;;1901350;75;20989;-66
2022/09/08 04:41:17;;;;;;;30.48;16.10;;;15.20;79.40;;;;;;1901331;75;20953;-65
2022/09/08 04:43:46;;;;;;;35.13;17.42;;;15.30;79.30;;;;;;1901361;75;21050;-65
2022/09/08 04:46:16;;;;;;;38.20;18.52;;;15.30;79.40;;;;;;1901348;75;21051;-66
2022/09/08 04:48:46;;;;;;;29.80;14.90;;;15.40;79.30;;;;;;1901304;75;21055;-66
2022/09/08 04:51:18;;;;;;;23.62;12.70;;;15.50;79.00;;;;;;1901462;75;21062;-66
2022/09/08 04:53:48;;;;;;;16.60;9.50;;;15.60;78.20;;;;;;1901438;75;20985;-66
2022/09/08 04:56:17;;;;;;;16.17;8.75;;;15.60;77.90;;;;;;1901364;75;21055;-66
2022/09/08 04:58:46;;;;;;;27.13;13.83;;;15.60;77.50;;;;;;1901311;75;21064;-66
2022/09/08 05:01:20;;;;;;;29.25;12.50;;;15.70;77.70;;;;;;1901241;75;21461;-66
2022/09/08 05:03:52;;;;;;;21.05;9.60;;;15.70;77.70;;;;;;1901443;74;21020;-66
2022/09/08 05:06:21;;;;;;;16.07;9.38;;;15.70;77.60;;;;;;1901366;75;21455;-66
2022/09/08 05:08:52;;;;;;;14.15;7.92;;;15.80;77.50;;;;;;1892895;75;21056;-66
2022/09/08 05:11:23;;;;;;;16.48;8.98;;;15.90;76.70;;;;;;1892044;76;21051;-66
2022/09/08 05:13:52;;;;;;;18.02;10.30;;;16.00;75.10;;;;;;1892138;76;20973;-66
2022/09/08 05:16:24;;;;;;;12.82;8.48;;;16.00;74.20;;;;;;1892085;76;20977;-66
2022/09/08 05:18:56;;;;;;;14.45;8.85;;;16.00;73.20;;;;;;1892011;76;20977;-66
2022/09/08 05:21:26;;;;;;;12.00;7.75;;;16.10;74.30;;;;;;1890537;76;20969;-66
2022/09/08 05:23:56;;;;;;;25.37;14.10;;;16.10;74.30;;;;;;1891892;76;21372;-66
2022/09/08 05:26:25;;;;;;;22.48;11.53;;;16.10;74.60;;;;;;1891832;76;20957;-66
2022/09/08 05:28:54;;;;;;;19.48;8.93;;;16.20;73.80;;;;;;1891832;76;21388;-66
2022/09/08 05:31:26;;;;;;;15.28;7.87;;;16.20;73.00;;;;;;1891945;76;20978;-66
2022/09/08 05:33:56;;;;;;;16.73;8.50;;;16.20;72.70;;;;;;1892042;76;20966;-66
2022/09/08 05:36:28;;;;;;;30.27;14.75;;;16.20;73.60;;;;;;1891947;76;20981;-66
2022/09/08 05:38:58;;;;;;;27.25;10.68;;;16.20;72.70;;;;;;1891901;76;21016;-66
2022/09/08 05:41:27;;;;;;;23.70;9.80;;;16.30;72.90;;;;;;1891904;76;20993;-66
2022/09/08 05:43:57;;;;;;;18.30;8.65;;;16.30;71.60;;;;;;1891986;76;20984;-66
2022/09/08 05:46:27;;;;;;;26.12;10.95;;;16.50;72.60;;;;;;1891915;76;21043;-66
2022/09/08 05:48:58;;;;;;;21.10;9.80;;;16.50;72.20;;;;;;1891967;76;20973;-66
2022/09/08 05:51:27;;;;;;;28.20;10.18;;;16.60;72.00;;;;;;1891995;76;20966;-66
2022/09/08 05:53:58;;;;;;;13.53;6.87;;;16.70;70.60;;;;;;1891946;76;21039;-66
2022/09/08 05:56:27;;;;;;;18.60;7.55;;;16.80;70.00;;;;;;1891964;76;20985;-66
2022/09/08 05:58:58;;;;;;;22.35;6.83;;;16.80;70.40;;;;;;1891943;76;21510;-66
2022/09/08 06:01:29;;;;;;;11.25;6.72;;;16.90;70.20;;;;;;1891953;76;20985;-66
2022/09/08 06:03:59;;;;;;;12.90;4.97;;;17.00;69.10;;;;;;1891951;76;20973;-66
2022/09/08 06:06:28;;;;;;;8.78;5.00;;;17.00;69.10;;;;;;1891969;76;20985;-66
2022/09/08 06:09:01;;;;;;;8.78;4.92;;;17.10;66.30;;;;;;1896251;75;20984;-66
2022/09/08 06:11:32;;;;;;;13.15;4.83;;;17.10;67.60;;;;;;1898568;75;21025;-66
2022/09/08 06:14:01;;;;;;;10.85;5.22;;;17.10;68.00;;;;;;1898402;75;20977;-65
2022/09/08 06:16:31;;;;;;;10.75;5.12;;;17.20;66.10;;;;;;1898392;75;21449;-66
2022/09/08 06:19:01;;;;;;;7.58;4.87;;;17.30;65.70;;;;;;1898364;75;21030;-66
2022/09/08 06:21:32;;;;;;;13.20;4.95;;;17.30;66.10;;;;;;1898470;75;20965;-66
2022/09/08 06:24:04;;;;;;;9.58;4.92;;;17.40;66.90;;;;;;1898373;75;21056;-65
2022/09/08 06:26:44;;;;;;;8.40;4.62;;;17.50;67.00;;;;;;1898430;75;20973;-66
2022/09/08 06:29:27;;;;;;;9.20;5.08;;;17.60;67.60;;;;;;1898451;75;20969;-66
2022/09/08 06:32:17;;;;;;;12.15;5.15;;;17.70;67.30;;;;;;1898478;75;20957;-66
2022/09/08 06:34:48;;;;;;;9.75;5.12;;;17.70;67.00;;;;;;1898443;75;21031;-66
2022/09/08 06:37:20;;;;;;;10.88;5.37;;;17.80;66.70;;;;;;1898417;75;20985;-66
2022/09/08 06:39:52;;;;;;;12.73;5.78;;;17.90;66.60;;;;;;1888685;75;21431;-66
2022/09/08 06:42:40;;;;;;;10.35;5.58;;;18.00;65.70;;;;;;1898440;75;21017;-65
2022/09/08 06:45:12;;;;;;;15.43;5.78;;;18.00;66.10;;;;;;1898631;75;21489;-65
2022/09/08 06:47:44;;;;;;;8.50;4.75;;;18.10;65.90;;;;;;1898034;75;21047;-65
2022/09/08 06:50:16;;;;;;;8.83;4.53;;;18.20;64.20;;;;;;1898305;75;21475;-65
2022/09/08 06:52:50;;;;;;;8.68;3.80;;;18.20;63.00;;;;;;1898487;75;21012;-65
2022/09/08 06:55:40;;;;;;;6.75;4.28;;;18.20;60.20;;;;;;1898661;75;20976;-65
2022/09/08 06:58:32;;;;;;;7.53;4.60;;;18.30;60.90;;;;;;1898421;75;21380;-65
2022/09/08 07:01:29;;;;;;;5.97;4.60;;;18.30;58.80;;;;;;1898380;75;21050;-65
2022/09/08 07:04:13;;;;;;;10.70;4.55;;;18.30;56.30;;;;;;1897129;75;21047;-65
2022/09/08 07:06:50;;;;;;;7.53;4.87;;;18.30;57.30;;;;;;1898435;75;20968;-65
2022/09/08 07:09:27;;;;;;;7.85;4.87;;;18.30;56.90;;;;;;1898510;75;21021;-65
2022/09/08 07:12:11;;;;;;;7.33;4.72;;;18.40;56.00;;;;;;1876327;75;21004;-65
2022/09/08 07:14:45;;;;;;;9.05;4.78;;;18.50;56.70;;;;;;1898387;75;21009;-65
2022/09/08 07:17:26;;;;;;;8.45;4.70;;;18.50;56.40;;;;;;1897806;75;20993;-65
2022/09/08 07:19:55;;;;;;;7.83;3.55;;;18.60;55.90;;;;;;1898586;75;21043;-65
2022/09/08 07:22:31;;;;;;;7.75;3.87;;;18.70;55.80;;;;;;1898428;75;21042;-65
2022/09/08 07:25:22;;;;;;;10.15;5.28;;;18.80;54.50;;;;;;1898186;75;20996;-65
2022/09/08 07:27:54;;;;;;;6.72;3.87;;;18.80;55.30;;;;;;1898590;75;20969;-64
2022/09/08 07:30:23;;;;;;;5.62;3.40;;;18.80;54.70;;;;;;1898413;75;20985;-65
2022/09/08 07:32:55;;;;;;;8.83;3.70;;;18.90;54.00;;;;;;1898541;75;20953;-65
2022/09/08 07:35:32;;;;;;;6.12;3.25;;;18.90;53.60;;;;;;1898432;75;20957;-65
2022/09/08 07:38:04;;;;;;;8.10;3.05;;;19.00;52.70;;;;;;1827893;75;20969;-65
2022/09/08 07:40:45;;;;;;;7.37;3.05;;;19.00;52.10;;;;;;1898567;75;20941;-65
2022/09/08 07:43:16;;;;;;;3.62;2.77;;;19.00;53.00;;;;;;1898556;75;20980;-65
2022/09/08 07:45:51;;;;;;;7.33;3.52;;;19.10;53.10;;;;;;1898491;75;21036;-66
2022/09/08 07:48:32;;;;;;;6.78;3.40;;;19.10;52.80;;;;;;1897949;75;20989;-65
2022/09/08 07:51:10;;;;;;;5.40;3.02;;;19.20;52.30;;;;;;1898630;75;20985;-65
2022/09/08 07:53:55;;;;;;;11.63;3.58;;;19.20;52.80;;;;;;1898444;75;21383;-65
2022/09/08 07:56:26;;;;;;;6.17;2.83;;;19.30;53.10;;;;;;1898612;75;21047;-65
2022/09/08 07:59:10;;;;;;;8.05;2.92;;;19.40;53.50;;;;;;1898341;75;21455;-65
2022/09/08 08:01:53;;;;;;;8.58;3.37;;;19.40;52.90;;;;;;1851767;75;21051;-65
2022/09/08 08:04:45;;;;;;;9.83;3.52;;;19.50;51.20;;;;;;1898491;75;20996;-65
2022/09/08 08:07:17;;;;;;;9.53;3.87;;;19.60;51.30;;;;;;1896803;75;21121;-65
2022/09/08 08:10:01;;;;;;;6.47;2.83;;;19.70;51.10;;;;;;1894914;75;21079;-65
2022/09/08 08:12:38;;;;;;;4.08;2.40;;;19.80;51.20;;;;;;1891936;76;21521;-65
2022/09/08 08:15:10;;;;;;;6.30;2.95;;;19.80;50.20;;;;;;1890759;76;21055;-65
2022/09/08 08:17:45;;;;;;;7.10;3.37;;;19.80;50.20;;;;;;1891900;75;21068;-65
2022/09/08 08:20:31;;;;;;;;;;;19.90;50.80;;;;;;1894847;76;21063;-65
2022/09/08 08:23:09;;;;;;;7.72;3.42;;;19.90;50.40;;;;;;1892142;76;20092;-65
2022/09/08 08:25:52;;;;;;;8.08;3.70;;;20.00;48.90;;;;;;1869516;76;21529;-65
2022/09/08 08:28:22;;;;;;;5.05;2.75;;;20.00;49.40;;;;;;1891169;76;20965;-65
2022/09/08 08:31:09;;;;;;;5.25;2.08;;;20.00;49.60;;;;;;1892160;76;20945;-65
2022/09/08 08:33:41;;;;;;;14.38;3.37;;;20.00;48.60;;;;;;1890265;73;21001;-62
2022/09/08 08:36:15;;;;;;;2.90;2.47;;;20.00;49.60;;;;;;1891552;76;20993;-62
2022/09/08 08:39:08;;;;;;;13.30;8.33;;;20.10;51.90;;;;;;1891830;76;21051;-62
2022/09/08 08:41:58;;;;;;;19.73;9.20;;;20.10;52.00;;;;;;1891655;76;20978;-62
2022/09/08 08:44:41;;;;;;;10.80;6.37;;;20.20;52.50;;;;;;1891499;76;21474;-61
2022/09/08 08:47:13;;;;;;;7.15;3.85;;;20.40;52.50;;;;;;1891866;76;20969;-61
2022/09/08 08:49:53;;;;;;;7.37;3.67;;;20.50;52.50;;;;;;1890197;76;21087;-62
2022/09/08 08:52:34;;;;;;;8.70;3.22;;;20.60;51.40;;;;;;1842532;76;21047;-62
2022/09/08 08:55:25;;;;;;;5.53;3.37;;;20.60;52.30;;;;;;1880876;76;21076;-62
2022/09/08 08:57:57;;;;;;;8.05;3.50;;;20.70;52.30;;;;;;1891622;76;21047;-61
2022/09/08 09:00:43;;;;;;;6.22;3.22;;;20.80;50.30;;;;;;1890774;76;21039;-61
2022/09/08 09:03:33;;;;;;;8.95;3.10;;;20.90;51.00;;;;;;1890518;76;21453;-62
2022/09/08 09:06:17;;;;;;;10.28;3.72;;;20.90;50.90;;;;;;1891886;76;21039;-62
2022/09/08 09:09:17;;;;;;;4.08;2.62;;;21.00;50.80;;;;;;1889161;76;21001;-61
2022/09/08 09:11:55;;;;;;;6.85;3.30;;;21.10;49.80;;;;;;1890311;76;20990;-62
2022/09/08 09:14:35;;;;;;;5.05;3.25;;;21.10;49.30;;;;;;1890064;76;21063;-62
2022/09/08 09:17:10;;;;;;;31.85;19.62;;;21.20;49.70;;;;;;1891892;76;20962;-62
2022/09/08 09:20:04;;;;;;;7.37;4.62;;;21.20;48.70;;;;;;1891779;76;20983;-62
2022/09/08 09:22:41;;;;;;;11.28;6.40;;;21.30;47.90;;;;;;1890791;76;21029;-62
2022/09/08 09:25:31;;;;;;;8.68;3.90;;;21.30;47.90;;;;;;1891937;76;20949;-62
2022/09/08 09:28:19;;;;;;;4.10;2.62;;;21.30;48.20;;;;;;1892412;76;21541;-63
2022/09/08 09:31:16;;;;;;;7.25;2.83;;;21.40;47.70;;;;;;1895986;76;21015;-63
2022/09/08 09:34:10;;;;;;;7.78;3.10;;;21.40;48.20;;;;;;1896134;74;20996;-63
2022/09/08 09:36:56;;;;;;;6.47;2.72;;;21.50;47.20;;;;;;1895841;76;21379;-63
2022/09/08 09:39:31;;;;;;;5.00;3.30;;;21.50;48.10;;;;;;1895637;73;21453;-63
2022/09/08 09:42:07;;;;;;;;;;;21.50;48.40;;;;;;1898547;75;20999;-63
2022/09/08 09:44:44;;;;;;;4.62;2.75;;;21.60;45.30;;;;;;1893661;74;20374;-63
2022/09/08 09:47:24;;;;;;;4.60;3.05;;;21.60;48.00;;;;;;1894150;76;21015;-62
2022/09/08 09:50:18;;;;;;;11.68;3.20;;;21.60;48.10;;;;;;1895888;74;21003;-62
2022/09/08 09:52:56;;;;;;;10.93;3.12;;;21.70;48.40;;;;;;1896047;75;21446;-63
2022/09/08 09:55:44;;;;;;;6.95;2.87;;;21.70;46.80;;;;;;1895162;76;21149;-62
2022/09/08 09:58:24;;;;;;;7.53;2.62;;;21.70;46.10;;;;;;1892926;74;21008;-57
2022/09/08 10:01:08;;;;;;;5.50;2.83;;;21.80;45.40;;;;;;1894621;75;21011;-59
2022/09/08 10:03:51;;;;;;;26.17;4.12;;;21.80;45.40;;;;;;1895444;74;21596;-59
2022/09/08 10:06:28;;;;;;;16.05;4.45;;;21.80;46.60;;;;;;1894744;75;21019;-59
2022/09/08 10:09:16;;;;;;;3.45;2.60;;;21.90;48.60;;;;;;1867277;76;21075;-63
2022/09/08 10:12:01;;;;;;;6.62;2.75;;;21.90;47.80;;;;;;1894985;74;21050;-57
2022/09/08 10:14:44;;;;;;;6.42;2.80;;;22.00;47.60;;;;;;1898967;75;21354;-63
2022/09/08 10:17:16;;;;;;;5.75;2.70;;;22.00;46.60;;;;;;1898768;75;20974;-63
2022/09/08 10:19:48;;;;;;;15.70;3.80;;;22.10;46.10;;;;;;1895051;75;21394;-69
2022/09/08 10:22:25;;;;;;;4.72;2.70;;;22.10;45.60;;;;;;1894222;75;21018;-67
2022/09/08 10:25:23;;;;;;;8.98;3.37;;;22.10;45.60;;;;;;1892230;75;21025;-71
2022/09/08 10:28:11;;;;;;;7.70;3.08;;;22.10;46.20;;;;;;1868372;77;21452;-63
2022/09/08 10:30:57;;;;;;;6.70;2.80;;;22.20;46.40;;;;;;1868616;77;21521;-64
2022/09/08 10:33:59;;;;;;;8.55;2.65;;;22.30;46.80;;;;;;1868618;77;20968;-66
2022/09/08 10:36:49;;;;;;;11.30;3.42;;;22.30;46.10;;;;;;1868823;77;20980;-66
2022/09/08 10:39:20;;;;;;;11.18;3.58;;;22.40;46.10;;;;;;1838158;77;21034;-66
2022/09/08 10:42:13;;;;;;;8.78;2.90;;;22.40;45.70;;;;;;1865433;77;21007;-66
2022/09/08 10:45:00;;;;;;;4.92;2.58;;;22.50;45.60;;;;;;1867099;77;20964;-65
2022/09/08 10:47:51;;;;;;;4.65;2.50;;;22.50;45.00;;;;;;1868577;77;20976;-66
2022/09/08 10:50:21;;;;;;;4.15;2.50;;;22.50;44.60;;;;;;1851297;75;21004;-65
2022/09/08 10:53:14;;;;;;;8.63;2.77;;;22.50;44.90;;;;;;1868514;77;20983;-65
2022/09/08 10:56:11;;;;;;;7.75;2.70;;;22.60;45.10;;;;;;1867257;77;21000;-65
2022/09/08 10:58:55;;;;;;;4.80;2.42;;;22.60;44.50;;;;;;1868677;77;21011;-65
2022/09/08 11:01:35;;;;;;;4.10;2.52;;;22.60;43.80;;;;;;1867784;75;21414;-65
2022/09/08 11:04:25;;;;;;;2.70;2.35;;;22.60;43.40;;;;;;1868758;77;21058;-65
2022/09/08 11:07:17;;;;;;;8.00;3.35;;;22.60;43.90;;;;;;1868728;77;21447;-65
2022/09/08 11:09:58;;;;;;;8.45;2.70;;;22.60;44.70;;;;;;1868693;77;21395;-65
2022/09/08 11:12:50;;;;;;;12.63;4.47;;;22.60;44.10;;;;;;1875076;76;21011;-65
2022/09/08 11:15:22;;;;;;;7.30;3.12;;;22.80;44.00;;;;;;1875672;76;21089;-65
2022/09/08 11:17:52;;;;;;;12.33;3.17;;;22.70;43.20;;;;;;1873630;76;21023;-65
2022/09/08 11:20:29;;;;;;;6.42;3.40;;;22.70;43.20;;;;;;1875805;76;21038;-65
2022/09/08 11:23:13;;;;;;;7.00;2.50;;;22.80;43.30;;;;;;1873428;76;21425;-64
2022/09/08 11:26:05;;;;;;;10.30;2.83;;;22.80;42.10;;;;;;1875776;76;21003;-64
2022/09/08 11:29:09;;;;;;;8.90;4.55;;;22.70;43.00;;;;;;1875319;74;21069;-64
2022/09/08 11:32:01;;;;;;;26.42;10.58;;;22.80;43.70;;;;;;1875708;76;21034;-64
2022/09/08 11:34:56;;;;;;;4.78;2.77;;;22.90;42.70;;;;;;1875678;76;21072;-64
2022/09/08 11:37:56;;;;;;;9.43;3.67;;;22.90;43.20;;;;;;1825153;76;21019;-64
2022/09/08 11:40:46;;;;;;;7.55;3.30;;;22.90;42.80;;;;;;1875818;76;21519;-64
2022/09/08 11:43:26;;;;;;;7.75;3.85;;;22.90;42.80;;;;;;1874214;76;20987;-64
2022/09/08 11:46:31;;;;;;;19.82;6.42;;;22.90;42.70;;;;;;1875731;76;21018;-64
2022/09/08 11:49:32;;;;;;;7.15;3.27;;;22.90;43.00;;;;;;1875711;76;21136;-64
2022/09/08 11:52:20;;;;;;;5.10;2.92;;;22.90;42.80;;;;;;1875659;76;21413;-64
2022/09/08 11:55:18;;;;;;;8.55;2.65;;;23.00;42.40;;;;;;1834311;76;21444;-64
2022/09/08 11:58:12;;;;;;;12.78;3.33;;;23.00;42.10;;;;;;1875698;76;21094;-64
2022/09/08 12:00:44;;;;;;;7.47;4.83;;;23.00;42.20;;;;;;1875630;76;21022;-64
2022/09/08 12:03:33;;;;;;;7.87;3.00;;;23.10;42.20;;;;;;1872373;76;21179;-64
2022/09/08 12:06:20;;;;;;;5.92;2.55;;;23.10;41.90;;;;;;1875837;76;21080;-64
2022/09/08 12:09:11;;;;;;;7.95;4.10;;;23.10;41.80;;;;;;1776929;81;21036;-64
2022/09/08 12:11:51;;;;;;;4.72;2.10;;;23.10;42.00;;;;;;1872228;76;21020;-64
2022/09/08 12:14:29;;;;;;;7.37;3.60;;;23.20;42.10;;;;;;1866859;77;20980;-64
2022/09/08 12:17:15;;;;;;;7.22;2.67;;;23.20;40.90;;;;;;1868033;77;21450;-64
2022/09/08 12:20:06;;;;;;;4.90;2.45;;;23.30;40.00;;;;;;1868560;77;20983;-64
2022/09/08 12:22:56;;;;;;;6.37;3.37;;;23.20;39.50;;;;;;1867237;77;20971;-64
2022/09/08 12:25:36;;;;;;;9.10;2.47;;;23.20;39.70;;;;;;1868981;77;21042;-64
2022/09/08 12:28:38;;;;;;;8.88;2.90;;;23.20;40.00;;;;;;1869036;77;20964;-64
2022/09/08 12:31:33;;;;;;;4.30;2.30;;;23.20;40.00;;;;;;1867161;77;21450;-64
2022/09/08 12:34:08;;;;;;;8.05;4.22;;;23.20;39.70;;;;;;1866995;75;21091;-64
2022/09/08 12:36:45;;;;;;;7.00;2.65;;;23.30;40.50;;;;;;1869134;77;21003;-64
2022/09/08 12:39:40;;;;;;;7.17;2.70;;;23.30;40.00;;;;;;1869046;77;20985;-65
2022/09/08 12:42:17;;;;;;;6.53;2.75;;;23.30;40.00;;;;;;1868115;77;20976;-65
2022/09/08 12:45:04;;;;;;;12.50;4.60;;;23.30;40.40;;;;;;1869075;77;20960;-65
2022/09/08 12:47:52;;;;;;;15.68;3.62;;;23.30;40.20;;;;;;1869041;77;21049;-65
2022/09/08 12:50:41;;;;;;;9.10;3.30;;;23.30;40.20;;;;;;1868954;77;20976;-64
2022/09/08 12:53:31;;;;;;;9.03;5.00;;;23.30;39.80;;;;;;1869080;77;21054;-65
2022/09/08 12:56:28;;;;;;;12.70;5.30;;;23.30;39.70;;;;;;1869164;77;20964;-64
2022/09/08 12:59:11;;;;;;;9.43;3.70;;;23.30;39.70;;;;;;1869080;77;21445;-64
2022/09/08 13:01:49;;;;;;;6.83;3.52;;;23.30;39.00;;;;;;1868985;77;21508;-65
2022/09/08 13:04:47;;;;;;;4.12;2.80;;;23.30;39.60;;;;;;1832586;77;21047;-65
2022/09/08 13:07:28;;;;;;;5.12;2.62;;;23.30;39.40;;;;;;1868980;77;21009;-65
2022/09/08 13:09:59;;;;;;;10.53;3.65;;;23.30;39.20;;;;;;1868966;77;20991;-65
2022/09/08 13:12:55;;;;;;;6.65;2.50;;;23.30;39.40;;;;;;1862367;75;21027;-65
2022/09/08 13:15:27;;;;;;;4.35;2.47;;;23.30;39.20;;;;;;1857867;77;21094;-71
2022/09/08 13:18:07;;;;;;;31.82;8.73;;;23.30;39.50;;;;;;1859873;77;21058;-66
2022/09/08 13:20:57;;;;;;;3.25;2.77;;;23.30;40.90;;;;;;1859126;77;20980;-72
2022/09/08 13:23:40;;;;;;;4.42;2.52;;;23.40;40.60;;;;;;1870963;76;20996;-66
2022/09/08 13:26:33;;;;;;;6.12;2.70;;;23.40;40.00;;;;;;1888631;76;20986;-67
2022/09/08 13:29:32;;;;;;;13.03;4.25;;;23.40;39.30;;;;;;1881206;76;21010;-67
2022/09/08 13:32:26;;;;;;;15.40;4.65;;;23.40;39.50;;;;;;1889969;76;21060;-65
2022/09/08 13:35:26;;;;;;;10.38;3.60;;;23.40;40.30;;;;;;1890303;76;21010;-65
2022/09/08 13:38:16;;;;;;;9.88;3.37;;;23.40;40.20;;;;;;1889906;76;21038;-65
2022/09/08 13:40:53;;;;;;;7.35;2.47;;;23.40;40.20;;;;;;1888626;76;21506;-66